sensor_id;sensor_type;location;lat;lon;timestamp;P1;durP1;ratioP1;P2;durP2;ratioP2
52674;SDS011;38569;52.722;6.440;2023-12-22T00:01:29;33.25;;;8.15;;
52674;SDS011;38569;52.722;6.440;2023-12-22T00:03:54;25.67;;;5.15;;
52674;SDS011;38569;52.722;6.440;2023-12-22T00:06:20;29.35;;;5.45;;
52674;SDS011;38569;52.722;6.440;2023-12-22T00:08:46;23.17;;;6.45;;
52674;SDS011;38569;52.722;6.440;2023-12-22T00:11:11;33.30;;;5.22;;
52674;SDS011;38569;52.722;6.440;2023-12-22T00:13:37;26.65;;;5.57;;
52674;SDS011;38569;52.722;6.440;2023-12-22T00:16:03;21.08;;;5.15;;
52674;SDS011;38569;52.722;6.440;2023-12-22T00:18:29;22.00;;;3.80;;
52674;SDS011;38569;52.722;6.440;2023-12-22T00:20:56;12.98;;;3.00;;
52674;SDS011;38569;52.722;6.440;2023-12-22T00:23:21;15.18;;;3.38;;
52674;SDS011;38569;52.722;6.440;2023-12-22T00:25:47;13.85;;;3.65;;
52674;SDS011;38569;52.722;6.440;2023-12-22T00:28:13;21.65;;;5.35;;
52674;SDS011;38569;52.722;6.440;2023-12-22T00:30:38;17.90;;;4.53;;
52674;SDS011;38569;52.722;6.440;2023-12-22T00:33:04;25.15;;;3.50;;
52674;SDS011;38569;52.722;6.440;2023-12-22T00:35:30;14.65;;;3.55;;
52674;SDS011;38569;52.722;6.440;2023-12-22T00:37:56;15.80;;;3.20;;
52674;SDS011;38569;52.722;6.440;2023-12-22T00:40:21;19.67;;;3.45;;
52674;SDS011;38569;52.722;6.440;2023-12-22T00:42:47;20.15;;;4.30;;
52674;SDS011;38569;52.722;6.440;2023-12-22T00:45:13;21.50;;;4.55;;
52674;SDS011;38569;52.722;6.440;2023-12-22T00:47:38;21.92;;;4.80;;
52674;SDS011;38569;52.722;6.440;2023-12-22T00:50:04;24.75;;;4.65;;
52674;SDS011;38569;52.722;6.440;2023-12-22T00:52:30;25.08;;;4.47;;
52674;SDS011;38569;52.722;6.440;2023-12-22T00:54:56;21.75;;;4.90;;
52674;SDS011;38569;52.722;6.440;2023-12-22T00:57:22;24.90;;;4.25;;
52674;SDS011;38569;52.722;6.440;2023-12-22T00:59:48;31.70;;;5.78;;
52674;SDS011;38569;52.722;6.440;2023-12-22T01:02:14;15.32;;;3.95;;
52674;SDS011;38569;52.722;6.440;2023-12-22T01:04:40;31.00;;;5.40;;
52674;SDS011;38569;52.722;6.440;2023-12-22T01:07:10;26.80;;;5.05;;
52674;SDS011;38569;52.722;6.440;2023-12-22T01:09:36;17.17;;;4.38;;
52674;SDS011;38569;52.722;6.440;2023-12-22T01:12:05;14.45;;;3.15;;
52674;SDS011;38569;52.722;6.440;2023-12-22T01:14:32;19.00;;;3.92;;
52674;SDS011;38569;52.722;6.440;2023-12-22T01:16:58;19.98;;;3.95;;
52674;SDS011;38569;52.722;6.440;2023-12-22T01:19:25;17.08;;;4.55;;
52674;SDS011;38569;52.722;6.440;2023-12-22T01:21:51;22.20;;;3.88;;
52674;SDS011;38569;52.722;6.440;2023-12-22T01:24:17;22.05;;;4.28;;
52674;SDS011;38569;52.722;6.440;2023-12-22T01:26:42;20.35;;;3.88;;
52674;SDS011;38569;52.722;6.440;2023-12-22T01:29:08;14.57;;;3.17;;
52674;SDS011;38569;52.722;6.440;2023-12-22T01:31:34;15.07;;;4.20;;
52674;SDS011;38569;52.722;6.440;2023-12-22T01:34:00;19.10;;;4.43;;
52674;SDS011;38569;52.722;6.440;2023-12-22T01:36:25;32.50;;;5.63;;
52674;SDS011;38569;52.722;6.440;2023-12-22T01:38:51;21.05;;;4.57;;
52674;SDS011;38569;52.722;6.440;2023-12-22T01:41:17;19.42;;;4.10;;
52674;SDS011;38569;52.722;6.440;2023-12-22T01:43:42;19.42;;;3.67;;
52674;SDS011;38569;52.722;6.440;2023-12-22T01:46:08;27.27;;;5.80;;
52674;SDS011;38569;52.722;6.440;2023-12-22T01:48:36;20.48;;;4.20;;
52674;SDS011;38569;52.722;6.440;2023-12-22T01:51:01;20.90;;;3.80;;
52674;SDS011;38569;52.722;6.440;2023-12-22T01:53:29;14.68;;;3.42;;
52674;SDS011;38569;52.722;6.440;2023-12-22T01:55:56;11.65;;;3.03;;
52674;SDS011;38569;52.722;6.440;2023-12-22T01:58:23;10.63;;;3.22;;
52674;SDS011;38569;52.722;6.440;2023-12-22T02:00:49;16.30;;;2.75;;
52674;SDS011;38569;52.722;6.440;2023-12-22T02:03:17;19.25;;;4.43;;
52674;SDS011;38569;52.722;6.440;2023-12-22T02:05:46;12.98;;;3.00;;
52674;SDS011;38569;52.722;6.440;2023-12-22T02:08:15;22.08;;;5.22;;
52674;SDS011;38569;52.722;6.440;2023-12-22T02:10:43;9.35;;;2.53;;
52674;SDS011;38569;52.722;6.440;2023-12-22T02:13:09;16.00;;;3.00;;
52674;SDS011;38569;52.722;6.440;2023-12-22T02:15:36;15.50;;;3.08;;
52674;SDS011;38569;52.722;6.440;2023-12-22T02:18:02;14.32;;;3.78;;
52674;SDS011;38569;52.722;6.440;2023-12-22T02:20:58;17.90;;;4.53;;
52674;SDS011;38569;52.722;6.440;2023-12-22T02:23:24;13.60;;;4.05;;
52674;SDS011;38569;52.722;6.440;2023-12-22T02:25:50;19.10;;;4.00;;
52674;SDS011;38569;52.722;6.440;2023-12-22T02:28:22;13.02;;;3.20;;
52674;SDS011;38569;52.722;6.440;2023-12-22T02:30:54;25.65;;;4.15;;
52674;SDS011;38569;52.722;6.440;2023-12-22T02:33:27;20.92;;;3.45;;
52674;SDS011;38569;52.722;6.440;2023-12-22T02:35:55;14.95;;;3.85;;
52674;SDS011;38569;52.722;6.440;2023-12-22T02:38:25;18.95;;;3.75;;
52674;SDS011;38569;52.722;6.440;2023-12-22T02:40:52;7.90;;;2.63;;
52674;SDS011;38569;52.722;6.440;2023-12-22T02:43:17;15.00;;;2.75;;
52674;SDS011;38569;52.722;6.440;2023-12-22T02:45:43;19.33;;;4.70;;
52674;SDS011;38569;52.722;6.440;2023-12-22T02:48:09;11.13;;;1.90;;
52674;SDS011;38569;52.722;6.440;2023-12-22T02:50:36;19.15;;;2.78;;
52674;SDS011;38569;52.722;6.440;2023-12-22T02:53:01;12.88;;;3.65;;
52674;SDS011;38569;52.722;6.440;2023-12-22T02:55:27;17.77;;;2.50;;
52674;SDS011;38569;52.722;6.440;2023-12-22T02:57:53;9.85;;;2.70;;
52674;SDS011;38569;52.722;6.440;2023-12-22T03:00:18;13.93;;;3.25;;
52674;SDS011;38569;52.722;6.440;2023-12-22T03:02:44;12.55;;;2.53;;
52674;SDS011;38569;52.722;6.440;2023-12-22T03:05:10;20.17;;;2.75;;
52674;SDS011;38569;52.722;6.440;2023-12-22T03:07:35;13.43;;;2.25;;
52674;SDS011;38569;52.722;6.440;2023-12-22T03:10:01;8.48;;;2.40;;
52674;SDS011;38569;52.722;6.440;2023-12-22T03:12:27;7.05;;;2.03;;
52674;SDS011;38569;52.722;6.440;2023-12-22T03:14:53;10.43;;;1.73;;
52674;SDS011;38569;52.722;6.440;2023-12-22T03:17:18;6.35;;;1.98;;
52674;SDS011;38569;52.722;6.440;2023-12-22T03:19:44;5.70;;;1.30;;
52674;SDS011;38569;52.722;6.440;2023-12-22T03:22:10;9.55;;;1.38;;
52674;SDS011;38569;52.722;6.440;2023-12-22T03:24:35;4.35;;;1.35;;
52674;SDS011;38569;52.722;6.440;2023-12-22T03:27:02;7.60;;;1.77;;
52674;SDS011;38569;52.722;6.440;2023-12-22T03:29:28;3.75;;;1.00;;
52674;SDS011;38569;52.722;6.440;2023-12-22T03:31:53;3.05;;;0.95;;
52674;SDS011;38569;52.722;6.440;2023-12-22T03:34:19;7.50;;;1.33;;
52674;SDS011;38569;52.722;6.440;2023-12-22T03:36:45;8.05;;;1.63;;
52674;SDS011;38569;52.722;6.440;2023-12-22T03:39:14;12.43;;;1.55;;
52674;SDS011;38569;52.722;6.440;2023-12-22T03:41:40;5.32;;;1.02;;
52674;SDS011;38569;52.722;6.440;2023-12-22T03:44:06;4.70;;;1.23;;
52674;SDS011;38569;52.722;6.440;2023-12-22T03:46:32;4.60;;;1.33;;
52674;SDS011;38569;52.722;6.440;2023-12-22T03:48:57;10.40;;;1.60;;
52674;SDS011;38569;52.722;6.440;2023-12-22T03:51:23;15.93;;;2.45;;
52674;SDS011;38569;52.722;6.440;2023-12-22T03:53:49;11.77;;;1.83;;
52674;SDS011;38569;52.722;6.440;2023-12-22T03:56:15;8.27;;;1.70;;
52674;SDS011;38569;52.722;6.440;2023-12-22T03:58:40;7.25;;;2.03;;
52674;SDS011;38569;52.722;6.440;2023-12-22T04:01:06;18.15;;;4.13;;
52674;SDS011;38569;52.722;6.440;2023-12-22T04:03:33;12.00;;;2.78;;
52674;SDS011;38569;52.722;6.440;2023-12-22T04:06:01;15.48;;;2.80;;
52674;SDS011;38569;52.722;6.440;2023-12-22T04:08:30;13.32;;;2.55;;
52674;SDS011;38569;52.722;6.440;2023-12-22T04:10:55;13.52;;;2.75;;
52674;SDS011;38569;52.722;6.440;2023-12-22T04:13:21;16.15;;;3.60;;
52674;SDS011;38569;52.722;6.440;2023-12-22T04:15:47;15.90;;;3.85;;
52674;SDS011;38569;52.722;6.440;2023-12-22T04:18:13;15.50;;;2.63;;
52674;SDS011;38569;52.722;6.440;2023-12-22T04:20:38;34.38;;;6.40;;
52674;SDS011;38569;52.722;6.440;2023-12-22T04:23:04;14.85;;;3.90;;
52674;SDS011;38569;52.722;6.440;2023-12-22T04:25:30;24.83;;;3.28;;
52674;SDS011;38569;52.722;6.440;2023-12-22T04:27:55;24.52;;;3.67;;
52674;SDS011;38569;52.722;6.440;2023-12-22T04:30:21;6.72;;;3.47;;
52674;SDS011;38569;52.722;6.440;2023-12-22T04:32:47;13.20;;;3.80;;
52674;SDS011;38569;52.722;6.440;2023-12-22T04:35:12;11.98;;;2.58;;
52674;SDS011;38569;52.722;6.440;2023-12-22T04:37:38;21.08;;;4.13;;
52674;SDS011;38569;52.722;6.440;2023-12-22T04:40:04;19.08;;;2.88;;
52674;SDS011;38569;52.722;6.440;2023-12-22T04:42:30;18.33;;;3.42;;
52674;SDS011;38569;52.722;6.440;2023-12-22T04:44:56;23.70;;;3.53;;
52674;SDS011;38569;52.722;6.440;2023-12-22T04:47:22;15.70;;;3.70;;
52674;SDS011;38569;52.722;6.440;2023-12-22T04:49:48;22.02;;;3.80;;
52674;SDS011;38569;52.722;6.440;2023-12-22T04:52:14;19.83;;;4.18;;
52674;SDS011;38569;52.722;6.440;2023-12-22T04:54:39;23.30;;;3.47;;
52674;SDS011;38569;52.722;6.440;2023-12-22T04:57:05;14.13;;;3.90;;
52674;SDS011;38569;52.722;6.440;2023-12-22T04:59:31;22.50;;;4.72;;
52674;SDS011;38569;52.722;6.440;2023-12-22T05:01:57;13.70;;;2.90;;
52674;SDS011;38569;52.722;6.440;2023-12-22T05:04:23;17.08;;;3.65;;
52674;SDS011;38569;52.722;6.440;2023-12-22T05:06:48;20.83;;;3.40;;
52674;SDS011;38569;52.722;6.440;2023-12-22T05:09:15;18.95;;;4.20;;
52674;SDS011;38569;52.722;6.440;2023-12-22T05:11:41;12.52;;;4.70;;
52674;SDS011;38569;52.722;6.440;2023-12-22T05:14:07;25.02;;;4.20;;
52674;SDS011;38569;52.722;6.440;2023-12-22T05:16:33;20.67;;;4.18;;
52674;SDS011;38569;52.722;6.440;2023-12-22T05:18:59;20.90;;;4.70;;
52674;SDS011;38569;52.722;6.440;2023-12-22T05:21:25;17.55;;;2.97;;
52674;SDS011;38569;52.722;6.440;2023-12-22T05:23:50;18.38;;;4.20;;
52674;SDS011;38569;52.722;6.440;2023-12-22T05:26:17;22.08;;;4.53;;
52674;SDS011;38569;52.722;6.440;2023-12-22T05:28:43;18.02;;;3.50;;
52674;SDS011;38569;52.722;6.440;2023-12-22T05:31:09;15.98;;;3.65;;
52674;SDS011;38569;52.722;6.440;2023-12-22T05:33:35;19.25;;;4.30;;
52674;SDS011;38569;52.722;6.440;2023-12-22T05:36:01;19.33;;;3.35;;
52674;SDS011;38569;52.722;6.440;2023-12-22T05:38:26;12.73;;;4.28;;
52674;SDS011;38569;52.722;6.440;2023-12-22T05:40:52;21.98;;;4.43;;
52674;SDS011;38569;52.722;6.440;2023-12-22T05:43:18;15.13;;;3.90;;
52674;SDS011;38569;52.722;6.440;2023-12-22T05:45:43;18.25;;;4.38;;
52674;SDS011;38569;52.722;6.440;2023-12-22T05:48:09;15.38;;;3.83;;
52674;SDS011;38569;52.722;6.440;2023-12-22T05:50:35;24.27;;;4.20;;
52674;SDS011;38569;52.722;6.440;2023-12-22T05:53:01;26.30;;;4.97;;
52674;SDS011;38569;52.722;6.440;2023-12-22T05:55:26;19.33;;;3.50;;
52674;SDS011;38569;52.722;6.440;2023-12-22T05:57:52;20.58;;;4.25;;
52674;SDS011;38569;52.722;6.440;2023-12-22T06:00:18;25.33;;;4.40;;
52674;SDS011;38569;52.722;6.440;2023-12-22T06:02:44;34.70;;;7.93;;
52674;SDS011;38569;52.722;6.440;2023-12-22T06:05:10;25.80;;;4.32;;
52674;SDS011;38569;52.722;6.440;2023-12-22T06:07:36;11.25;;;2.65;;
52674;SDS011;38569;52.722;6.440;2023-12-22T06:10:02;26.52;;;5.20;;
52674;SDS011;38569;52.722;6.440;2023-12-22T06:12:28;19.55;;;4.05;;
52674;SDS011;38569;52.722;6.440;2023-12-22T06:14:53;20.73;;;3.55;;
52674;SDS011;38569;52.722;6.440;2023-12-22T06:17:19;13.75;;;3.75;;
52674;SDS011;38569;52.722;6.440;2023-12-22T06:19:45;21.48;;;4.28;;
52674;SDS011;38569;52.722;6.440;2023-12-22T06:22:11;19.95;;;3.45;;
52674;SDS011;38569;52.722;6.440;2023-12-22T06:24:36;16.20;;;4.97;;
52674;SDS011;38569;52.722;6.440;2023-12-22T06:27:02;22.42;;;3.92;;
52674;SDS011;38569;52.722;6.440;2023-12-22T06:29:28;15.20;;;3.22;;
52674;SDS011;38569;52.722;6.440;2023-12-22T06:31:55;19.85;;;4.15;;
52674;SDS011;38569;52.722;6.440;2023-12-22T06:34:21;26.02;;;4.95;;
52674;SDS011;38569;52.722;6.440;2023-12-22T06:36:47;16.25;;;2.85;;
52674;SDS011;38569;52.722;6.440;2023-12-22T06:39:13;21.40;;;4.38;;
52674;SDS011;38569;52.722;6.440;2023-12-22T06:41:39;15.93;;;4.00;;
52674;SDS011;38569;52.722;6.440;2023-12-22T06:44:04;17.35;;;3.65;;
52674;SDS011;38569;52.722;6.440;2023-12-22T06:46:30;18.25;;;4.07;;
52674;SDS011;38569;52.722;6.440;2023-12-22T06:48:56;23.02;;;4.25;;
52674;SDS011;38569;52.722;6.440;2023-12-22T06:54:01;27.77;;;5.32;;
52674;SDS011;38569;52.722;6.440;2023-12-22T06:56:29;20.10;;;4.90;;
52674;SDS011;38569;52.722;6.440;2023-12-22T06:58:57;32.72;;;5.38;;
52674;SDS011;38569;52.722;6.440;2023-12-22T07:01:29;21.17;;;5.32;;
52674;SDS011;38569;52.722;6.440;2023-12-22T07:03:59;19.38;;;3.58;;
52674;SDS011;38569;52.722;6.440;2023-12-22T07:06:27;19.38;;;4.05;;
52674;SDS011;38569;52.722;6.440;2023-12-22T07:11:38;18.50;;;4.80;;
52674;SDS011;38569;52.722;6.440;2023-12-22T07:14:04;25.95;;;4.85;;
52674;SDS011;38569;52.722;6.440;2023-12-22T07:16:30;17.95;;;4.82;;
52674;SDS011;38569;52.722;6.440;2023-12-22T07:18:56;27.38;;;4.43;;
52674;SDS011;38569;52.722;6.440;2023-12-22T07:21:22;25.33;;;4.25;;
52674;SDS011;38569;52.722;6.440;2023-12-22T07:23:48;23.23;;;6.32;;
52674;SDS011;38569;52.722;6.440;2023-12-22T07:26:13;18.40;;;3.28;;
52674;SDS011;38569;52.722;6.440;2023-12-22T07:28:39;33.17;;;4.43;;
52674;SDS011;38569;52.722;6.440;2023-12-22T07:31:05;21.45;;;4.35;;
52674;SDS011;38569;52.722;6.440;2023-12-22T07:33:32;16.10;;;3.95;;
52674;SDS011;38569;52.722;6.440;2023-12-22T07:35:57;12.52;;;3.00;;
52674;SDS011;38569;52.722;6.440;2023-12-22T07:38:23;15.10;;;3.10;;
52674;SDS011;38569;52.722;6.440;2023-12-22T07:40:49;17.02;;;3.72;;
52674;SDS011;38569;52.722;6.440;2023-12-22T07:43:15;19.67;;;4.10;;
52674;SDS011;38569;52.722;6.440;2023-12-22T07:45:41;25.00;;;4.63;;
52674;SDS011;38569;52.722;6.440;2023-12-22T07:48:06;17.83;;;3.78;;
52674;SDS011;38569;52.722;6.440;2023-12-22T07:50:32;20.40;;;4.07;;
52674;SDS011;38569;52.722;6.440;2023-12-22T07:52:58;13.45;;;3.13;;
52674;SDS011;38569;52.722;6.440;2023-12-22T07:55:24;18.83;;;5.10;;
52674;SDS011;38569;52.722;6.440;2023-12-22T07:57:50;15.25;;;3.70;;
52674;SDS011;38569;52.722;6.440;2023-12-22T08:00:16;24.25;;;3.85;;
52674;SDS011;38569;52.722;6.440;2023-12-22T08:02:42;23.38;;;3.75;;
52674;SDS011;38569;52.722;6.440;2023-12-22T08:05:08;23.38;;;5.10;;
52674;SDS011;38569;52.722;6.440;2023-12-22T08:07:34;13.48;;;3.30;;
52674;SDS011;38569;52.722;6.440;2023-12-22T08:10:01;16.80;;;3.45;;
52674;SDS011;38569;52.722;6.440;2023-12-22T08:12:27;18.88;;;4.45;;
52674;SDS011;38569;52.722;6.440;2023-12-22T08:14:53;20.58;;;4.95;;
52674;SDS011;38569;52.722;6.440;2023-12-22T08:17:19;15.80;;;3.40;;
52674;SDS011;38569;52.722;6.440;2023-12-22T08:19:45;25.23;;;5.93;;
52674;SDS011;38569;52.722;6.440;2023-12-22T08:22:11;17.60;;;3.33;;
52674;SDS011;38569;52.722;6.440;2023-12-22T08:24:39;18.27;;;2.95;;
52674;SDS011;38569;52.722;6.440;2023-12-22T08:27:06;21.30;;;3.65;;
52674;SDS011;38569;52.722;6.440;2023-12-22T08:29:32;14.60;;;3.45;;
52674;SDS011;38569;52.722;6.440;2023-12-22T08:31:58;20.00;;;3.60;;
52674;SDS011;38569;52.722;6.440;2023-12-22T08:34:25;14.73;;;2.80;;
52674;SDS011;38569;52.722;6.440;2023-12-22T08:36:54;10.90;;;2.08;;
52674;SDS011;38569;52.722;6.440;2023-12-22T08:39:20;16.23;;;3.03;;
52674;SDS011;38569;52.722;6.440;2023-12-22T08:41:46;17.48;;;3.08;;
52674;SDS011;38569;52.722;6.440;2023-12-22T08:44:12;12.98;;;2.50;;
52674;SDS011;38569;52.722;6.440;2023-12-22T08:46:41;9.88;;;2.22;;
52674;SDS011;38569;52.722;6.440;2023-12-22T08:49:07;20.60;;;2.88;;
52674;SDS011;38569;52.722;6.440;2023-12-22T08:51:33;12.57;;;2.13;;
52674;SDS011;38569;52.722;6.440;2023-12-22T08:53:59;14.20;;;3.30;;
52674;SDS011;38569;52.722;6.440;2023-12-22T08:56:25;16.27;;;2.92;;
52674;SDS011;38569;52.722;6.440;2023-12-22T08:58:52;13.63;;;3.80;;
52674;SDS011;38569;52.722;6.440;2023-12-22T09:01:20;19.85;;;3.58;;
52674;SDS011;38569;52.722;6.440;2023-12-22T09:03:47;15.82;;;2.90;;
52674;SDS011;38569;52.722;6.440;2023-12-22T09:06:14;17.83;;;4.03;;
52674;SDS011;38569;52.722;6.440;2023-12-22T09:08:43;21.67;;;3.45;;
52674;SDS011;38569;52.722;6.440;2023-12-22T09:11:11;16.30;;;2.72;;
52674;SDS011;38569;52.722;6.440;2023-12-22T09:13:37;14.68;;;2.95;;
52674;SDS011;38569;52.722;6.440;2023-12-22T09:16:04;18.50;;;4.15;;
52674;SDS011;38569;52.722;6.440;2023-12-22T09:18:30;12.98;;;2.55;;
52674;SDS011;38569;52.722;6.440;2023-12-22T09:20:57;16.75;;;4.13;;
52674;SDS011;38569;52.722;6.440;2023-12-22T09:23:23;19.75;;;3.13;;
52674;SDS011;38569;52.722;6.440;2023-12-22T09:25:49;8.98;;;2.20;;
52674;SDS011;38569;52.722;6.440;2023-12-22T09:28:14;10.98;;;2.78;;
52674;SDS011;38569;52.722;6.440;2023-12-22T09:30:41;13.00;;;2.95;;
52674;SDS011;38569;52.722;6.440;2023-12-22T09:33:07;15.15;;;3.10;;
52674;SDS011;38569;52.722;6.440;2023-12-22T09:35:36;15.57;;;2.92;;
52674;SDS011;38569;52.722;6.440;2023-12-22T09:38:02;13.32;;;2.35;;
52674;SDS011;38569;52.722;6.440;2023-12-22T09:40:28;17.58;;;3.22;;
52674;SDS011;38569;52.722;6.440;2023-12-22T09:42:55;20.13;;;7.32;;
52674;SDS011;38569;52.722;6.440;2023-12-22T09:45:23;20.95;;;6.05;;
52674;SDS011;38569;52.722;6.440;2023-12-22T09:47:49;14.02;;;3.70;;
52674;SDS011;38569;52.722;6.440;2023-12-22T09:50:17;19.38;;;3.83;;
52674;SDS011;38569;52.722;6.440;2023-12-22T09:52:43;18.60;;;5.53;;
52674;SDS011;38569;52.722;6.440;2023-12-22T09:55:14;13.52;;;4.30;;
52674;SDS011;38569;52.722;6.440;2023-12-22T09:57:41;19.95;;;3.90;;
52674;SDS011;38569;52.722;6.440;2023-12-22T10:00:10;17.95;;;3.72;;
52674;SDS011;38569;52.722;6.440;2023-12-22T10:02:38;15.10;;;3.67;;
52674;SDS011;38569;52.722;6.440;2023-12-22T10:05:04;16.90;;;5.85;;
52674;SDS011;38569;52.722;6.440;2023-12-22T10:07:31;18.73;;;4.25;;
52674;SDS011;38569;52.722;6.440;2023-12-22T10:09:58;17.13;;;3.35;;
52674;SDS011;38569;52.722;6.440;2023-12-22T10:12:26;21.92;;;4.70;;
52674;SDS011;38569;52.722;6.440;2023-12-22T10:14:54;16.17;;;4.65;;
52674;SDS011;38569;52.722;6.440;2023-12-22T10:17:20;14.40;;;3.38;;
52674;SDS011;38569;52.722;6.440;2023-12-22T10:19:46;17.75;;;3.67;;
52674;SDS011;38569;52.722;6.440;2023-12-22T10:22:12;10.88;;;4.07;;
52674;SDS011;38569;52.722;6.440;2023-12-22T10:24:39;12.80;;;3.22;;
52674;SDS011;38569;52.722;6.440;2023-12-22T10:27:09;18.05;;;2.47;;
52674;SDS011;38569;52.722;6.440;2023-12-22T10:29:36;11.98;;;2.20;;
52674;SDS011;38569;52.722;6.440;2023-12-22T10:32:02;4.75;;;1.70;;
52674;SDS011;38569;52.722;6.440;2023-12-22T10:34:29;6.70;;;1.33;;
52674;SDS011;38569;52.722;6.440;2023-12-22T10:36:56;10.70;;;2.20;;
52674;SDS011;38569;52.722;6.440;2023-12-22T10:39:22;6.28;;;2.85;;
52674;SDS011;38569;52.722;6.440;2023-12-22T10:41:48;4.95;;;1.30;;
52674;SDS011;38569;52.722;6.440;2023-12-22T10:44:14;8.05;;;1.35;;
52674;SDS011;38569;52.722;6.440;2023-12-22T10:46:42;5.78;;;1.70;;
52674;SDS011;38569;52.722;6.440;2023-12-22T10:49:08;6.68;;;3.65;;
52674;SDS011;38569;52.722;6.440;2023-12-22T10:51:34;10.05;;;4.13;;
52674;SDS011;38569;52.722;6.440;2023-12-22T10:54:00;9.60;;;3.28;;
52674;SDS011;38569;52.722;6.440;2023-12-22T10:56:26;6.00;;;1.85;;
52674;SDS011;38569;52.722;6.440;2023-12-22T10:58:53;5.90;;;2.30;;
52674;SDS011;38569;52.722;6.440;2023-12-22T11:01:20;4.28;;;1.63;;
52674;SDS011;38569;52.722;6.440;2023-12-22T11:03:48;2.58;;;1.20;;
52674;SDS011;38569;52.722;6.440;2023-12-22T11:06:16;5.45;;;1.50;;
52674;SDS011;38569;52.722;6.440;2023-12-22T11:08:43;2.47;;;0.95;;
52674;SDS011;38569;52.722;6.440;2023-12-22T11:11:33;5.88;;;1.30;;
52674;SDS011;38569;52.722;6.440;2023-12-22T11:14:00;2.30;;;0.88;;
52674;SDS011;38569;52.722;6.440;2023-12-22T11:16:30;4.13;;;1.30;;
52674;SDS011;38569;52.722;6.440;2023-12-22T11:18:58;6.20;;;1.00;;
52674;SDS011;38569;52.722;6.440;2023-12-22T11:21:25;4.85;;;1.25;;
52674;SDS011;38569;52.722;6.440;2023-12-22T11:23:52;2.58;;;0.95;;
52674;SDS011;38569;52.722;6.440;2023-12-22T11:26:19;7.30;;;1.23;;
52674;SDS011;38569;52.722;6.440;2023-12-22T11:28:46;3.50;;;0.70;;
52674;SDS011;38569;52.722;6.440;2023-12-22T11:31:13;6.22;;;1.83;;
52674;SDS011;38569;52.722;6.440;2023-12-22T11:33:49;5.30;;;1.13;;
52674;SDS011;38569;52.722;6.440;2023-12-22T11:36:15;7.55;;;1.20;;
52674;SDS011;38569;52.722;6.440;2023-12-22T11:38:43;5.68;;;1.05;;
52674;SDS011;38569;52.722;6.440;2023-12-22T11:41:11;4.78;;;1.17;;
52674;SDS011;38569;52.722;6.440;2023-12-22T11:43:40;5.47;;;1.33;;
52674;SDS011;38569;52.722;6.440;2023-12-22T11:46:08;3.40;;;1.35;;
52674;SDS011;38569;52.722;6.440;2023-12-22T11:48:34;3.10;;;0.90;;
52674;SDS011;38569;52.722;6.440;2023-12-22T11:51:00;4.43;;;1.27;;
52674;SDS011;38569;52.722;6.440;2023-12-22T11:53:29;4.10;;;1.00;;
52674;SDS011;38569;52.722;6.440;2023-12-22T11:56:02;3.92;;;0.90;;
52674;SDS011;38569;52.722;6.440;2023-12-22T11:58:40;2.70;;;1.00;;
52674;SDS011;38569;52.722;6.440;2023-12-22T12:01:11;5.05;;;1.10;;
52674;SDS011;38569;52.722;6.440;2023-12-22T12:03:41;7.53;;;1.67;;
52674;SDS011;38569;52.722;6.440;2023-12-22T12:08:40;7.60;;;2.22;;
52674;SDS011;38569;52.722;6.440;2023-12-22T12:11:07;6.53;;;1.95;;
52674;SDS011;38569;52.722;6.440;2023-12-22T12:13:33;4.50;;;1.67;;
52674;SDS011;38569;52.722;6.440;2023-12-22T12:15:59;8.43;;;2.15;;
52674;SDS011;38569;52.722;6.440;2023-12-22T12:18:30;5.00;;;1.45;;
52674;SDS011;38569;52.722;6.440;2023-12-22T12:20:56;5.20;;;1.75;;
52674;SDS011;38569;52.722;6.440;2023-12-22T12:23:26;7.88;;;3.08;;
52674;SDS011;38569;52.722;6.440;2023-12-22T12:25:53;7.80;;;2.75;;
52674;SDS011;38569;52.722;6.440;2023-12-22T12:28:28;9.50;;;3.45;;
52674;SDS011;38569;52.722;6.440;2023-12-22T12:33:25;6.57;;;1.33;;
52674;SDS011;38569;52.722;6.440;2023-12-22T12:35:56;7.22;;;2.17;;
52674;SDS011;38569;52.722;6.440;2023-12-22T12:38:25;7.50;;;1.45;;
52674;SDS011;38569;52.722;6.440;2023-12-22T12:41:12;9.20;;;1.50;;
52674;SDS011;38569;52.722;6.440;2023-12-22T12:43:41;3.47;;;0.90;;
52674;SDS011;38569;52.722;6.440;2023-12-22T12:46:11;4.93;;;1.00;;
52674;SDS011;38569;52.722;6.440;2023-12-22T12:48:37;4.85;;;1.67;;
52674;SDS011;38569;52.722;6.440;2023-12-22T12:51:06;3.38;;;1.30;;
52674;SDS011;38569;52.722;6.440;2023-12-22T12:53:32;7.13;;;1.33;;
52674;SDS011;38569;52.722;6.440;2023-12-22T12:55:59;8.65;;;1.45;;
52674;SDS011;38569;52.722;6.440;2023-12-22T12:58:29;6.78;;;1.42;;
52674;SDS011;38569;52.722;6.440;2023-12-22T13:01:04;4.75;;;1.30;;
52674;SDS011;38569;52.722;6.440;2023-12-22T13:03:53;3.58;;;0.80;;
52674;SDS011;38569;52.722;6.440;2023-12-22T13:06:24;10.93;;;1.70;;
52674;SDS011;38569;52.722;6.440;2023-12-22T13:08:50;8.57;;;1.30;;
52674;SDS011;38569;52.722;6.440;2023-12-22T13:11:23;8.23;;;1.20;;
52674;SDS011;38569;52.722;6.440;2023-12-22T13:13:52;7.00;;;1.33;;
52674;SDS011;38569;52.722;6.440;2023-12-22T13:16:21;7.65;;;1.50;;
52674;SDS011;38569;52.722;6.440;2023-12-22T13:18:52;8.15;;;1.63;;
52674;SDS011;38569;52.722;6.440;2023-12-22T13:21:19;7.07;;;1.35;;
52674;SDS011;38569;52.722;6.440;2023-12-22T13:23:45;8.35;;;1.38;;
52674;SDS011;38569;52.722;6.440;2023-12-22T13:26:20;8.45;;;1.67;;
52674;SDS011;38569;52.722;6.440;2023-12-22T13:28:45;9.23;;;1.45;;
52674;SDS011;38569;52.722;6.440;2023-12-22T13:31:12;6.78;;;1.30;;
52674;SDS011;38569;52.722;6.440;2023-12-22T13:33:39;9.00;;;1.45;;
52674;SDS011;38569;52.722;6.440;2023-12-22T13:36:05;8.73;;;1.92;;
52674;SDS011;38569;52.722;6.440;2023-12-22T13:38:32;7.55;;;1.85;;
52674;SDS011;38569;52.722;6.440;2023-12-22T13:41:00;10.32;;;1.98;;
52674;SDS011;38569;52.722;6.440;2023-12-22T13:43:29;9.13;;;1.60;;
52674;SDS011;38569;52.722;6.440;2023-12-22T13:45:55;11.00;;;1.48;;
52674;SDS011;38569;52.722;6.440;2023-12-22T13:48:22;10.82;;;2.00;;
52674;SDS011;38569;52.722;6.440;2023-12-22T13:50:57;9.88;;;1.30;;
52674;SDS011;38569;52.722;6.440;2023-12-22T13:53:24;14.95;;;2.50;;
52674;SDS011;38569;52.722;6.440;2023-12-22T13:55:56;4.10;;;1.45;;
52674;SDS011;38569;52.722;6.440;2023-12-22T13:58:23;7.65;;;1.35;;
52674;SDS011;38569;52.722;6.440;2023-12-22T14:00:50;9.60;;;1.73;;
52674;SDS011;38569;52.722;6.440;2023-12-22T14:03:16;9.32;;;2.58;;
52674;SDS011;38569;52.722;6.440;2023-12-22T14:05:44;4.93;;;1.63;;
52674;SDS011;38569;52.722;6.440;2023-12-22T14:08:10;14.30;;;1.48;;
52674;SDS011;38569;52.722;6.440;2023-12-22T14:10:36;12.15;;;1.73;;
52674;SDS011;38569;52.722;6.440;2023-12-22T14:13:02;9.60;;;1.75;;
52674;SDS011;38569;52.722;6.440;2023-12-22T14:15:28;10.05;;;1.63;;
52674;SDS011;38569;52.722;6.440;2023-12-22T14:17:54;15.00;;;2.58;;
52674;SDS011;38569;52.722;6.440;2023-12-22T14:20:20;8.00;;;2.42;;
52674;SDS011;38569;52.722;6.440;2023-12-22T14:22:46;4.75;;;1.73;;
52674;SDS011;38569;52.722;6.440;2023-12-22T14:25:12;5.07;;;1.52;;
52674;SDS011;38569;52.722;6.440;2023-12-22T14:27:38;6.90;;;1.35;;
52674;SDS011;38569;52.722;6.440;2023-12-22T14:30:03;6.85;;;1.20;;
52674;SDS011;38569;52.722;6.440;2023-12-22T14:32:30;9.40;;;1.48;;
52674;SDS011;38569;52.722;6.440;2023-12-22T14:34:55;9.48;;;1.90;;
52674;SDS011;38569;52.722;6.440;2023-12-22T14:37:21;6.75;;;1.70;;
52674;SDS011;38569;52.722;6.440;2023-12-22T14:39:47;16.15;;;2.75;;
52674;SDS011;38569;52.722;6.440;2023-12-22T14:42:13;10.40;;;1.48;;
52674;SDS011;38569;52.722;6.440;2023-12-22T14:44:39;5.95;;;1.27;;
52674;SDS011;38569;52.722;6.440;2023-12-22T14:47:05;6.20;;;1.58;;